Billings Logan International Airport
KBIL : now visible

Airfield :











YOU CAN JOIN US ON...

 
LOGIN :

Register | Disclaimer

   EN    FR    IT 

 









Legend :    VFR   Marginal VFR   IFR   Intensive IFR   Very Intensive IFR
Visi :
Ceiling :
>= 8 km
>= 3000ft
5 to 8 km
1000 to 3000 ft
1500m to 5 km
500 to 1000 ft
800 to 1500m
200 to 500 ft
< 800m
< 200 ft
Symbols :   Thunderstorms  Fog  Heavy snow  Heavy precipitations  Wind > 20 kt







- Airport Elevation : 3652 ft
- IATA code : BIL


KBIL - Billings Logan International

CURRENT METAR :
  • 161853Z 08008KT 4SM -SN FEW022 BKN030 BKN065 M10/M13 A2972 RMK AO2 SLP116 VIS NE-E 2 1/2 P0001 T11001133

EXPIRED METARs :
  • 161818Z 08008KT 5SM -SN BKN041 BKN048 M11/M13 A2971 RMK AO2 P0001 T11061133
  • 161753Z 08010KT 2SM -SN OVC040 M11/M14 A2970 RMK AO2 SFC VIS 2 1/2 SLP115 4/005 933003 P0000 60000 T11111139 11089 21128 53016
  • 161737Z 07009KT 2SM -SN OVC035 M11/M14 A2970 RMK AO2 P0000 T11111139
  • 161716Z 07006KT 1 1/2SM -SN BKN029 OVC036 M11/M14 A2969 RMK AO2 TWR VIS 2 1/2 P0000 T11111139
  • 161653Z 07008KT 2 1/2SM -SN BKN036 OVC046 M12/M14 A2968 RMK AO2 SNB43 SLP108 P0000 T11171144

TAF KBIL
Valid from the 16 at 18:00 until the 17 at 18:00 UTC


161829Z 1618/1718 04010KT 5SM -SN BR SCT025 BKN050
TEMPO 1618/1621 2SM -SN BR
FM170200 04010KT 1 1/2SM -SN BR BKN012 OVC020
FM171200 01008KT 4SM -SN BR BKN020 OVC030
KZLC FIR / North America



MET'MAP, your aeronautical weather chart ! - Copyright ORBIFLY December 2007 - Disclaimer

ORBIFLY MET'MAP TEAM :

Programming & Development : Alexandra Zaïnal
Concept & Development : Baudouin d'Aumeries
Co-Development & Prog : Marc-Olivier Méhu
Technical & hardware support : Manuel Goepfert

Contact : metmap@orbifly.com




SOURCES & CREDITS :

   NOAA       Earth
Advisory